Kasugamaru — JD2191 — position and weather

sailwx.info

Track history (hours):
 
Tides and Currents Weather Stations Pressure Air Temp Water Temp Dewpoint Dewpoint Depression Visibility Wind Speed Wind Dir Waves Ship Positions

Kasugamaru

Last reported at 2018-Apr-26 11:30 UTC. Time now 2018-Apr-26 11:44 UTC.
Position N 35°27' E 139°40'.

Length 44 m; draft 3.9 m.

Type: Tug. MMSI: 431101128.

Date/timePositionNaut miles runAvg speedWind from/ knotsBaromVisibWave heightAir tempDewpointWater temp
2018-Apr-26 11:30N 35°27' E 139°40'0 0.0
2018-Apr-26 11:00N 35°27' E 139°40'0 0.0
2018-Apr-26 10:30N 35°27' E 139°40'0 0.0
2018-Apr-26 10:00N 35°27' E 139°40'1 2.2
2018-Apr-26 09:30N 35°27' E 139°41'0 0.1
2018-Apr-26 09:00N 35°27' E 139°41'2 3.1
2018-Apr-26 08:30N 35°26' E 139°43'1 1.6
2018-Apr-26 08:00N 35°26' E 139°42'1 2.0
2018-Apr-26 07:30N 35°27' E 139°41'1 1.0
2018-Apr-26 07:00N 35°26' E 139°41'0 0.7
2018-Apr-26 06:30N 35°26' E 139°41'1 2.7
2018-Apr-26 06:00N 35°28' E 139°40'0 0.0
2018-Apr-26 05:30N 35°28' E 139°40'1 2.8
2018-Apr-26 05:00N 35°26' E 139°41'1 1.7
2018-Apr-26 04:30N 35°26' E 139°42'2 3.6
2018-Apr-26 04:00N 35°28' E 139°40'0 0.0
2018-Apr-26 03:30N 35°28' E 139°40'0 0.0
2018-Apr-26 03:00N 35°28' E 139°40'0 0.0
2018-Apr-26 02:30N 35°28' E 139°40'0 0.0
2018-Apr-26 02:00N 35°28' E 139°40'0 0.0
2018-Apr-26 01:30N 35°28' E 139°40'1 1.9
2018-Apr-26 01:00N 35°27' E 139°39'0 0.0
2018-Apr-26 00:30N 35°27' E 139°39'0 0.8
2018-Apr-26 00:01N 35°27' E 139°39'1 2.5
2018-Apr-25 23:30N 35°27' E 139°40'0 0.3
2018-Apr-25 23:00N 35°26' E 139°40'0 0.5
2018-Apr-25 22:30N 35°27' E 139°40'1 1.7
2018-Apr-25 22:00N 35°27' E 139°39'0 0.0
2018-Apr-25 21:30N 35°27' E 139°39'0 0.0
2018-Apr-25 21:00N 35°27' E 139°39'0 0.0
2018-Apr-25 20:30N 35°27' E 139°39'0 0.0
2018-Apr-25 20:00N 35°27' E 139°39'0 0.0
2018-Apr-25 19:30N 35°27' E 139°39'0 0.0
2018-Apr-25 19:00N 35°27' E 139°39'0 0.0
2018-Apr-25 18:30N 35°27' E 139°39'0 0.0
2018-Apr-25 18:00N 35°27' E 139°39'0 0.0
2018-Apr-25 17:30N 35°27' E 139°39'0 0.0
2018-Apr-25 17:00N 35°27' E 139°39'0 0.0
2018-Apr-25 16:30N 35°27' E 139°39'0 0.0
2018-Apr-25 16:00N 35°27' E 139°39'0 0.0
2018-Apr-25 15:30N 35°27' E 139°39'0 0.0
2018-Apr-25 15:00N 35°27' E 139°39'0 0.0
2018-Apr-25 14:30N 35°27' E 139°39'0 0.0
2018-Apr-25 14:00N 35°27' E 139°39'0 0.0
2018-Apr-25 13:29N 35°27' E 139°39'0 0.0
2018-Apr-25 13:00N 35°27' E 139°39'0 0.0
2018-Apr-25 12:30N 35°27' E 139°39'0 0.0
2018-Apr-25 12:00N 35°27' E 139°39'0 0.0
2018-Apr-25 11:30N 35°27' E 139°39'0 0.0
2018-Apr-25 11:00N 35°27' E 139°39'0 0.0
2018-Apr-25 10:30N 35°27' E 139°39'0 0.0
2018-Apr-25 10:00N 35°27' E 139°39'0 0.0
2018-Apr-25 09:30N 35°27' E 139°39'0 0.0
2018-Apr-25 09:00N 35°27' E 139°39'0 0.0
2018-Apr-25 08:30N 35°27' E 139°39'0 0.0
2018-Apr-25 08:00N 35°27' E 139°39'0 0.0
2018-Apr-25 07:30N 35°27' E 139°39'0 0.0
2018-Apr-25 07:00N 35°27' E 139°39'0 0.0
2018-Apr-25 06:30N 35°27' E 139°39'0 0.0
2018-Apr-25 06:00N 35°27' E 139°39'0 0.0
2018-Apr-25 05:29N 35°27' E 139°39'0 0.0
2018-Apr-25 05:00N 35°27' E 139°39'0 0.0
2018-Apr-25 04:30N 35°27' E 139°39'0 0.0
2018-Apr-25 04:00N 35°27' E 139°39'0 0.0
2018-Apr-25 03:30N 35°27' E 139°39'0 0.0
2018-Apr-25 03:00N 35°27' E 139°39'0 0.0
2018-Apr-25 02:30N 35°27' E 139°39'0 0.0
2018-Apr-25 02:00N 35°27' E 139°39'0 0.0
2018-Apr-25 01:30N 35°27' E 139°39'0 0.0
2018-Apr-25 01:00N 35°27' E 139°39'0 0.0
2018-Apr-25 00:30N 35°27' E 139°39'0 0.0
2018-Apr-25 00:00N 35°27' E 139°39'0 0.0
2018-Apr-24 23:30N 35°27' E 139°39'0 0.6
2018-Apr-24 23:00N 35°27' E 139°39'2 4.6
2018-Apr-24 22:30N 35°26' E 139°42'1 2.6
2018-Apr-24 22:00N 35°25' E 139°42'1 1.5
2018-Apr-24 21:30N 35°25' E 139°41'0 0.2
2018-Apr-24 21:00N 35°25' E 139°41'0 0.0
2018-Apr-24 20:30N 35°25' E 139°41'1 2.3
2018-Apr-24 20:00N 35°25' E 139°42'1 1.9
2018-Apr-24 19:30N 35°24' E 139°41'0 0.0
2018-Apr-24 19:01N 35°24' E 139°41'0 0.0
2018-Apr-24 18:30N 35°24' E 139°41'1 2.6
2018-Apr-24 18:00N 35°23' E 139°40'0 0.0
2018-Apr-24 17:30N 35°23' E 139°40'0 0.0
2018-Apr-24 17:00N 35°23' E 139°40'0 0.0
2018-Apr-24 16:30N 35°23' E 139°40'0 0.0
2018-Apr-24 16:00N 35°23' E 139°40'0 0.0
2018-Apr-24 15:30N 35°23' E 139°40'1 1.6
2018-Apr-24 15:00N 35°24' E 139°40'0 0.2
2018-Apr-24 14:30N 35°24' E 139°41'1 1.7
2018-Apr-24 14:01N 35°23' E 139°41'3 6.3
2018-Apr-24 13:30N 35°26' E 139°42'0 0.0
2018-Apr-24 13:00N 35°26' E 139°42'0 0.0
2018-Apr-24 12:30N 35°26' E 139°42'0 0.0
2018-Apr-24 12:00N 35°26' E 139°42'0 0.0
2018-Apr-24 11:30N 35°26' E 139°42'0 0.0
2018-Apr-24 11:00N 35°26' E 139°42'0 0.0
2018-Apr-24 10:30N 35°26' E 139°42'1 2.5
2018-Apr-24 10:00N 35°27' E 139°41'1 1.3
2018-Apr-24 09:31N 35°26' E 139°40'0 0.3
2018-Apr-24 09:00N 35°27' E 139°40'0 0.0
2018-Apr-24 08:30N 35°27' E 139°40'1 1.7
2018-Apr-24 08:00N 35°27' E 139°41'1 2.9
2018-Apr-24 07:30N 35°28' E 139°41'0 0.2
2018-Apr-24 07:00N 35°28' E 139°41'2 3.9
2018-Apr-24 06:30N 35°27' E 139°40'0 0.0
2018-Apr-24 06:00N 35°27' E 139°40'1 1.4
2018-Apr-24 05:30N 35°27' E 139°40'1 1.7
2018-Apr-24 05:00N 35°27' E 139°41'0 0.1
2018-Apr-24 04:30N 35°27' E 139°41'1 2.0
2018-Apr-24 04:00N 35°27' E 139°40'0 0.0
2018-Apr-24 03:30N 35°27' E 139°40'0 0.0
2018-Apr-24 03:00N 35°27' E 139°40'0 0.0
2018-Apr-24 02:30N 35°27' E 139°40'0 0.0
2018-Apr-24 02:00N 35°27' E 139°40'0 0.0
2018-Apr-24 01:30N 35°27' E 139°40'0 0.0
2018-Apr-24 01:00N 35°27' E 139°40'0 0.0
2018-Apr-24 00:30N 35°27' E 139°40'0 0.0
2018-Apr-24 00:00N 35°27' E 139°40'0 0.0
2018-Apr-23 23:28N 35°27' E 139°40'0 0.0
2018-Apr-23 22:58N 35°27' E 139°40'0 0.0
2018-Apr-23 22:30N 35°27' E 139°40'0 0.0
2018-Apr-23 22:00N 35°27' E 139°40'0 0.0
2018-Apr-23 21:30N 35°27' E 139°40'0 0.0
2018-Apr-23 21:00N 35°27' E 139°40'0 0.0
2018-Apr-23 20:30N 35°27' E 139°40'0 0.0
2018-Apr-23 20:00N 35°27' E 139°40'0 0.0
2018-Apr-23 19:30N 35°27' E 139°40'0 0.0
2018-Apr-23 19:00N 35°27' E 139°40'0 0.0
2018-Apr-23 18:30N 35°27' E 139°40'0 0.0
2018-Apr-23 18:00N 35°27' E 139°40'0 0.0
2018-Apr-23 17:30N 35°27' E 139°40'0 0.0
2018-Apr-23 17:00N 35°27' E 139°40'0 0.0
2018-Apr-23 16:30N 35°27' E 139°40'0 0.0
2018-Apr-23 16:00N 35°27' E 139°40'0 0.0
2018-Apr-23 15:30N 35°27' E 139°40'0 0.0
2018-Apr-23 15:00N 35°27' E 139°40'0 0.0
2018-Apr-23 14:30N 35°27' E 139°40'0 0.0
2018-Apr-23 14:00N 35°27' E 139°40'0 0.0
2018-Apr-23 13:30N 35°27' E 139°40'0 0.0
2018-Apr-23 13:00N 35°27' E 139°40'0 0.0
2018-Apr-23 12:30N 35°27' E 139°40'0 0.0
2018-Apr-23 12:00N 35°27' E 139°40'0 0.0
2018-Apr-23 11:30N 35°27' E 139°40'0 0.0
2018-Apr-23 10:59N 35°27' E 139°40'0 0.0
2018-Apr-23 10:30N 35°27' E 139°40'0 0.0
2018-Apr-23 10:00N 35°27' E 139°40'0 0.0
2018-Apr-23 09:30N 35°27' E 139°40'0 0.0
2018-Apr-23 09:00N 35°27' E 139°40'0 0.0
2018-Apr-23 08:29N 35°27' E 139°40'0 0.0
2018-Apr-23 08:00N 35°27' E 139°40'0 0.0
2018-Apr-23 07:30N 35°27' E 139°40'0 0.0
2018-Apr-23 07:00N 35°27' E 139°40'0 0.0
2018-Apr-23 06:30N 35°27' E 139°40'0 0.0
2018-Apr-23 06:00N 35°27' E 139°40'0 0.0
2018-Apr-23 05:30N 35°27' E 139°40'0 0.0
2018-Apr-23 05:00N 35°27' E 139°40'1 1.2
2018-Apr-23 04:30N 35°27' E 139°41'5 9.3
2018-Apr-23 04:01N 35°30' E 139°45'0 0.2
2018-Apr-23 03:30N 35°30' E 139°45'2 3.7
2018-Apr-23 03:00N 35°29' E 139°43'4 7.5
2018-Apr-23 02:30N 35°26' E 139°44'2 3.1
2018-Apr-23 02:00N 35°27' E 139°43'2 4.1
2018-Apr-23 01:30N 35°27' E 139°40'0 0.0
2018-Apr-23 01:00N 35°27' E 139°40'0 0.0
2018-Apr-23 00:30N 35°27' E 139°40'0 0.0
2018-Apr-23 00:00N 35°27' E 139°40'0 0.0
2018-Apr-22 23:30N 35°27' E 139°40'0 0.0
2018-Apr-22 23:00N 35°27' E 139°40'0 0.0
2018-Apr-22 22:30N 35°27' E 139°40'0 0.0
2018-Apr-22 22:00N 35°27' E 139°40'0 0.0
2018-Apr-22 21:30N 35°27' E 139°40'0 0.0
2018-Apr-22 21:00N 35°27' E 139°40'0 0.0
2018-Apr-22 20:30N 35°27' E 139°40'0 0.0
2018-Apr-22 20:00N 35°27' E 139°40'0 0.0
2018-Apr-22 19:30N 35°27' E 139°40'0 0.0
2018-Apr-22 19:00N 35°27' E 139°40'0 0.0
2018-Apr-22 18:30N 35°27' E 139°40'0 0.0
2018-Apr-22 18:00N 35°27' E 139°40'0 0.0
2018-Apr-22 17:30N 35°27' E 139°40'0 0.0
2018-Apr-22 17:00N 35°27' E 139°40'0 0.0
2018-Apr-22 16:30N 35°27' E 139°40'0 0.0
2018-Apr-22 16:00N 35°27' E 139°40'0 0.0
2018-Apr-22 15:30N 35°27' E 139°40'0 0.0
2018-Apr-22 15:00N 35°27' E 139°40'0 0.0
2018-Apr-22 14:30N 35°27' E 139°40'0 0.0
2018-Apr-22 14:00N 35°27' E 139°40'0 0.0
2018-Apr-22 13:30N 35°27' E 139°40'0 0.0
2018-Apr-22 13:00N 35°27' E 139°40'0 0.0
2018-Apr-22 12:30N 35°27' E 139°40'0 0.0
2018-Apr-22 12:00N 35°27' E 139°40'0 0.0
2018-Apr-22 11:30N 35°27' E 139°40'0 0.0
2018-Apr-22 11:00N 35°27' E 139°40'0 0.0
2018-Apr-22 10:30N 35°27' E 139°40'0 0.0
2018-Apr-22 10:00N 35°27' E 139°40'0 0.0
2018-Apr-22 09:29N 35°27' E 139°40'0 0.0
2018-Apr-22 09:00N 35°27' E 139°40'3 5.2
2018-Apr-22 08:30N 35°29' E 139°42'1 1.1
2018-Apr-22 08:00N 35°29' E 139°42'1 1.4
2018-Apr-22 07:30N 35°29' E 139°43'0 0.0
2018-Apr-22 07:00N 35°29' E 139°43'1 1.1
2018-Apr-22 06:30N 35°29' E 139°43'2 4.9
2018-Apr-22 06:00N 35°28' E 139°40'0 0.0
2018-Apr-22 05:30N 35°28' E 139°40'0 1.0
2018-Apr-22 05:00N 35°27' E 139°41'1 2.1
2018-Apr-22 04:31N 35°26' E 139°41'2 3.1
2018-Apr-22 04:00N 35°28' E 139°40'0 0.0
2018-Apr-22 03:30N 35°28' E 139°40'0 0.0
2018-Apr-22 03:00N 35°28' E 139°40'1 1.8
2018-Apr-22 02:30N 35°28' E 139°42'0 0.9
2018-Apr-22 02:00N 35°28' E 139°42'2 3.7
2018-Apr-22 01:30N 35°27' E 139°44'1 2.9
2018-Apr-22 01:00N 35°27' E 139°42'0 0.0
2018-Apr-22 00:30N 35°27' E 139°42'0 0.0
2018-Apr-22 00:00N 35°27' E 139°42'0 0.0
2018-Apr-21 23:30N 35°27' E 139°42'0 0.0
2018-Apr-21 23:00N 35°27' E 139°42'1 3.0
2018-Apr-21 22:30N 35°28' E 139°41'0 0.4
2018-Apr-21 22:00N 35°28' E 139°41'2 4.7
2018-Apr-21 21:30N 35°27' E 139°43'1 2.4
2018-Apr-21 21:00N 35°26' E 139°44'3 6.9
2018-Apr-21 20:30N 35°27' E 139°40'0 0.0
2018-Apr-21 20:00N 35°27' E 139°40'0 0.0
2018-Apr-21 19:30N 35°27' E 139°40'0 0.0
2018-Apr-21 19:00N 35°27' E 139°40'0 0.0
2018-Apr-21 18:30N 35°27' E 139°40'0 0.0
2018-Apr-21 18:00N 35°27' E 139°40'0 0.0
2018-Apr-21 17:30N 35°27' E 139°40'0 0.0
2018-Apr-21 17:00N 35°27' E 139°40'0 0.0
2018-Apr-21 16:30N 35°27' E 139°40'0 0.0
2018-Apr-21 16:00N 35°27' E 139°40'0 0.0
2018-Apr-21 15:30N 35°27' E 139°40'0 0.0
2018-Apr-21 15:00N 35°27' E 139°40'0 0.0
2018-Apr-21 14:30N 35°27' E 139°40'0 0.0
2018-Apr-21 14:00N 35°27' E 139°40'0 0.0
2018-Apr-21 13:30N 35°27' E 139°40'0 0.0
2018-Apr-21 13:00N 35°27' E 139°40'0 0.0
2018-Apr-21 12:30N 35°27' E 139°40'0 0.0
2018-Apr-21 12:00N 35°27' E 139°40'0 0.0
2018-Apr-21 11:30N 35°27' E 139°40'0 0.0
2018-Apr-21 11:00N 35°27' E 139°40'0 0.0
2018-Apr-21 10:30N 35°27' E 139°40'0 0.0
2018-Apr-21 10:00N 35°27' E 139°40'0 0.0
2018-Apr-21 09:30N 35°27' E 139°40'0 0.0
2018-Apr-21 09:00N 35°27' E 139°40'0 0.0
2018-Apr-21 08:30N 35°27' E 139°40'0 0.0
2018-Apr-21 08:00N 35°27' E 139°40'0 0.0
2018-Apr-21 07:30N 35°27' E 139°40'0 0.0
2018-Apr-21 07:00N 35°27' E 139°40'0 0.0
2018-Apr-21 06:30N 35°27' E 139°40'0 0.0
2018-Apr-21 06:00N 35°27' E 139°40'0 0.0
2018-Apr-21 05:30N 35°27' E 139°40'0 0.0
2018-Apr-21 05:00N 35°27' E 139°40'0 0.0
2018-Apr-21 04:30N 35°27' E 139°40'0 0.0
2018-Apr-21 04:00N 35°27' E 139°40'0 0.0
2018-Apr-21 03:30N 35°27' E 139°40'0 0.0
2018-Apr-21 03:00N 35°27' E 139°40'0 0.0
2018-Apr-21 02:30N 35°27' E 139°40'0 0.0
2018-Apr-21 02:00N 35°27' E 139°40'0 0.0
2018-Apr-21 01:30N 35°27' E 139°40'0 0.0
2018-Apr-21 01:00N 35°27' E 139°40'0 0.0
2018-Apr-21 00:30N 35°27' E 139°40'0 0.0
2018-Apr-21 00:00N 35°27' E 139°40'0 0.0
2018-Apr-20 23:30N 35°27' E 139°40'0 0.0
2018-Apr-20 23:00N 35°27' E 139°40'0 0.0
2018-Apr-20 22:30N 35°27' E 139°40'0 0.0
2018-Apr-20 22:00N 35°27' E 139°40'0 0.0
2018-Apr-20 21:30N 35°27' E 139°40'0 0.0
2018-Apr-20 21:01N 35°27' E 139°40'0 0.0
2018-Apr-20 20:30N 35°27' E 139°40'0 0.0
2018-Apr-20 20:00N 35°27' E 139°40'0 0.0
2018-Apr-20 19:30N 35°27' E 139°40'0 0.0
2018-Apr-20 19:00N 35°27' E 139°40'0 0.0
2018-Apr-20 18:30N 35°27' E 139°40'0 0.0
2018-Apr-20 18:00N 35°27' E 139°40'0 0.0
2018-Apr-20 17:30N 35°27' E 139°40'0 0.0
2018-Apr-20 17:00N 35°27' E 139°40'0 0.0
2018-Apr-20 16:30N 35°27' E 139°40'0 0.0
2018-Apr-20 16:00N 35°27' E 139°40'0 0.0
2018-Apr-20 15:30N 35°27' E 139°40'0 0.0
2018-Apr-20 15:00N 35°27' E 139°40'0 0.0
2018-Apr-20 14:29N 35°27' E 139°40'0 0.0
2018-Apr-20 14:00N 35°27' E 139°40'0 0.0
2018-Apr-20 13:30N 35°27' E 139°40'0 0.0
2018-Apr-20 13:00N 35°27' E 139°40'0 0.0
2018-Apr-20 12:30N 35°27' E 139°40'0 0.0
2018-Apr-20 12:00N 35°27' E 139°40'0 0.0
2018-Apr-20 11:30N 35°27' E 139°40'0 0.0
2018-Apr-20 11:00N 35°27' E 139°40'0 0.0
2018-Apr-20 10:30N 35°27' E 139°40'0 0.0
2018-Apr-20 10:00N 35°27' E 139°40'0 0.0
2018-Apr-20 09:30N 35°27' E 139°40'0 0.0
2018-Apr-20 09:00N 35°27' E 139°40'0 0.0
2018-Apr-20 08:30N 35°27' E 139°40'0 0.0
2018-Apr-20 08:00N 35°27' E 139°40'0 0.0
2018-Apr-20 07:30N 35°27' E 139°40'0 0.0
2018-Apr-20 07:00N 35°27' E 139°40'0 0.0
2018-Apr-20 06:30N 35°27' E 139°40'0 0.0
2018-Apr-20 06:00N 35°27' E 139°40'0 0.0
2018-Apr-20 05:31N 35°27' E 139°40'1 2.1
2018-Apr-20 05:00N 35°27' E 139°39'2 4.2
2018-Apr-20 04:30N 35°29' E 139°40'0 0.0
2018-Apr-20 04:00N 35°29' E 139°40'1 2.9
2018-Apr-20 03:30N 35°28' E 139°41'0 0.0
2018-Apr-20 03:00N 35°28' E 139°41'0 0.0
2018-Apr-20 02:30N 35°28' E 139°41'3 6.8
2018-Apr-20 02:00N 35°24' E 139°42'3 5.3
2018-Apr-20 01:30N 35°24' E 139°39'0 0.3
2018-Apr-20 01:01N 35°25' E 139°39'3 5.3
2018-Apr-20 00:30N 35°25' E 139°42'3 5.5
2018-Apr-20 00:00N 35°28' E 139°41'0 0.0
2018-Apr-19 23:30N 35°28' E 139°41'0 0.0
2018-Apr-19 23:00N 35°28' E 139°41'1 2.0
2018-Apr-19 22:30N 35°27' E 139°40'0 0.0
2018-Apr-19 22:00N 35°27' E 139°40'0 0.0
2018-Apr-19 21:30N 35°27' E 139°40'0 0.0
2018-Apr-19 21:00N 35°27' E 139°40'0 0.0
2018-Apr-19 20:30N 35°27' E 139°40'0 0.0
2018-Apr-19 20:00N 35°27' E 139°40'0 0.0
2018-Apr-19 19:30N 35°27' E 139°40'0 0.0
2018-Apr-19 19:00N 35°27' E 139°40'0 0.0
2018-Apr-19 18:30N 35°27' E 139°40'0 0.0
2018-Apr-19 18:00N 35°27' E 139°40'0 0.0
2018-Apr-19 17:30N 35°27' E 139°40'0 0.0
2018-Apr-19 17:00N 35°27' E 139°40'0 0.0
2018-Apr-19 16:30N 35°27' E 139°40'0 0.0
2018-Apr-19 16:00N 35°27' E 139°40'0 0.0
2018-Apr-19 15:30N 35°27' E 139°40'0 0.0
2018-Apr-19 15:00N 35°27' E 139°40'0 0.0
2018-Apr-19 14:30N 35°27' E 139°40'0 0.0
2018-Apr-19 14:00N 35°27' E 139°40'0 0.0
2018-Apr-19 13:30N 35°27' E 139°40'0 0.0
2018-Apr-19 13:00N 35°27' E 139°40'0 0.0
2018-Apr-19 12:30N 35°27' E 139°40'0 0.0
2018-Apr-19 12:00N 35°27' E 139°40'0 0.0
2018-Apr-19 11:30N 35°27' E 139°40'0 0.0
2018-Apr-19 11:00N 35°27' E 139°40'0 0.0
2018-Apr-19 10:30N 35°27' E 139°40'0 0.0
2018-Apr-19 10:00N 35°27' E 139°40'0 0.0
2018-Apr-19 09:30N 35°27' E 139°40'0 0.0
2018-Apr-19 09:00N 35°27' E 139°40'0 0.0
2018-Apr-19 08:30N 35°27' E 139°40'0 0.0
2018-Apr-19 08:00N 35°27' E 139°40'0 0.0
2018-Apr-19 07:30N 35°27' E 139°40'0 0.0
2018-Apr-19 07:00N 35°27' E 139°40'0 0.0
2018-Apr-19 06:30N 35°27' E 139°40'0 0.0
2018-Apr-19 06:00N 35°27' E 139°40'0 0.0
2018-Apr-19 05:30N 35°27' E 139°40'0 0.0
2018-Apr-19 05:00N 35°27' E 139°40'0 0.0
2018-Apr-19 04:30N 35°27' E 139°40'0 0.0
2018-Apr-19 04:00N 35°27' E 139°40'0 0.0
2018-Apr-19 03:30N 35°27' E 139°40'0 0.0
2018-Apr-19 03:00N 35°27' E 139°40'0 0.0
2018-Apr-19 02:30N 35°27' E 139°40'0 0.0
2018-Apr-19 02:00N 35°27' E 139°40'0 0.0
2018-Apr-19 01:30N 35°27' E 139°40'0 0.0
2018-Apr-19 01:00N 35°27' E 139°40'0 0.0
2018-Apr-19 00:30N 35°27' E 139°40'0 0.0
2018-Apr-19 00:00N 35°27' E 139°40'1 1.8
2018-Apr-18 23:30N 35°27' E 139°41'1 1.7
2018-Apr-18 23:00N 35°28' E 139°42'1 1.8
2018-Apr-18 22:30N 35°27' E 139°43'1 2.2
2018-Apr-18 22:00N 35°26' E 139°43'0 0.3
2018-Apr-18 21:30N 35°27' E 139°43'3 5.6
2018-Apr-18 21:00N 35°27' E 139°39'0 0.0
2018-Apr-18 20:30N 35°27' E 139°39'1 2.3
2018-Apr-18 20:00N 35°28' E 139°40'1 1.0
2018-Apr-18 19:30N 35°29' E 139°39'1 2.9
2018-Apr-18 19:00N 35°28' E 139°40'0 0.0
2018-Apr-18 18:30N 35°28' E 139°40'0 0.0
2018-Apr-18 18:00N 35°28' E 139°40'0 0.0
2018-Apr-18 17:30N 35°28' E 139°40'0 0.0
2018-Apr-18 17:00N 35°28' E 139°40'0 0.0
2018-Apr-18 16:30N 35°28' E 139°40'0 0.0
2018-Apr-18 16:00N 35°28' E 139°40'0 0.0
2018-Apr-18 15:30N 35°28' E 139°40'0 0.0
2018-Apr-18 15:00N 35°28' E 139°40'0 0.0
2018-Apr-18 14:31N 35°28' E 139°40'0 0.0
2018-Apr-18 14:00N 35°28' E 139°40'0 0.0
2018-Apr-18 13:30N 35°28' E 139°40'0 0.0
2018-Apr-18 13:00N 35°28' E 139°40'0 0.0
2018-Apr-18 12:30N 35°28' E 139°40'0 0.0
2018-Apr-18 12:00N 35°28' E 139°40'0 0.0
2018-Apr-18 11:30N 35°28' E 139°40'1 1.8
2018-Apr-18 11:00N 35°27' E 139°39'2 4.2
2018-Apr-18 10:30N 35°27' E 139°42'1 1.8
2018-Apr-18 10:00N 35°27' E 139°41'0 0.0
2018-Apr-18 09:30N 35°27' E 139°41'3 6.7
2018-Apr-18 09:00N 35°24' E 139°42'4 7.0
2018-Apr-18 08:30N 35°24' E 139°37'0 0.1
2018-Apr-18 08:00N 35°24' E 139°37'1 1.4
2018-Apr-18 07:30N 35°24' E 139°38'2 4.3
2018-Apr-18 07:00N 35°23' E 139°41'0 0.9
2018-Apr-18 06:30N 35°23' E 139°40'0 0.0
2018-Apr-18 06:00N 35°23' E 139°40'0 0.0
2018-Apr-18 05:30N 35°23' E 139°40'0 0.0
2018-Apr-18 05:00N 35°23' E 139°40'0 0.0
2018-Apr-18 04:30N 35°23' E 139°40'1 2.0
2018-Apr-18 04:00N 35°24' E 139°41'1 2.4
2018-Apr-18 03:30N 35°23' E 139°41'0 0.2
2018-Apr-18 03:00N 35°23' E 139°41'3 6.1
2018-Apr-18 02:30N 35°26' E 139°42'611.4
2018-Apr-18 02:00N 35°29' E 139°47'611.8
2018-Apr-18 01:29N 35°30' E 139°55'511.3
2018-Apr-18 01:00N 35°30' E 140°02'0 0.1
2018-Apr-18 00:30N 35°30' E 140°02'1 1.7
2018-Apr-18 00:01N 35°30' E 140°01'1 2.0
2018-Apr-17 23:29N 35°31' E 139°60'5 9.6
2018-Apr-17 23:00N 35°29' E 139°54'611.6
2018-Apr-17 22:30N 35°27' E 139°48'611.6
2018-Apr-17 22:00N 35°27' E 139°41'0 0.9
2018-Apr-17 21:29N 35°27' E 139°40'0 0.0
2018-Apr-17 21:00N 35°27' E 139°40'0 0.0
2018-Apr-17 20:30N 35°27' E 139°40'0 0.0
2018-Apr-17 20:00N 35°27' E 139°40'0 0.0
2018-Apr-17 19:30N 35°27' E 139°40'0 0.0
2018-Apr-17 19:00N 35°27' E 139°40'0 0.0
2018-Apr-17 18:30N 35°27' E 139°40'0 0.0
2018-Apr-17 18:00N 35°27' E 139°40'0 0.0
2018-Apr-17 17:30N 35°27' E 139°40'0 0.0
2018-Apr-17 17:00N 35°27' E 139°40'0 0.0
2018-Apr-17 16:28N 35°27' E 139°40'0 0.0
2018-Apr-17 16:00N 35°27' E 139°40'0 0.0
2018-Apr-17 15:30N 35°27' E 139°40'0 0.0
2018-Apr-17 15:00N 35°27' E 139°40'0 0.0
2018-Apr-17 14:30N 35°27' E 139°40'0 0.0
2018-Apr-17 14:00N 35°27' E 139°40'0 0.0
2018-Apr-17 13:30N 35°27' E 139°40'0 0.0
2018-Apr-17 13:00N 35°27' E 139°40'0 0.0
2018-Apr-17 12:30N 35°27' E 139°40'0 0.0
2018-Apr-17 12:00N 35°27' E 139°40'0 0.0
2018-Apr-17 11:30N 35°27' E 139°40'0 0.0
2018-Apr-17 11:00N 35°27' E 139°40'0 0.0
2018-Apr-17 10:30N 35°27' E 139°40'0 0.0
2018-Apr-17 10:00N 35°27' E 139°40'0 0.1
2018-Apr-17 09:30N 35°27' E 139°40'4 7.0
2018-Apr-17 09:00N 35°23' E 139°42'611.0
2018-Apr-17 08:30N 35°18' E 139°43'612.2
2018-Apr-17 08:00N 35°12' E 139°46'611.7
2018-Apr-17 07:30N 35°18' E 139°44'612.4
2018-Apr-17 07:00N 35°24' E 139°43'4 8.7
2018-Apr-17 06:30N 35°23' E 139°48'2 4.4
2018-Apr-17 06:00N 35°21' E 139°49'0 0.4
2018-Apr-17 05:30N 35°21' E 139°49'4 7.8
2018-Apr-17 05:00N 35°24' E 139°45'611.1
2018-Apr-17 04:31N 35°28' E 139°40'0 0.0
2018-Apr-17 04:00N 35°28' E 139°40'0 0.0
2018-Apr-17 03:30N 35°28' E 139°40'0 0.0
2018-Apr-17 03:00N 35°28' E 139°40'0 0.0
2018-Apr-17 02:30N 35°28' E 139°40'0 0.0
2018-Apr-17 02:00N 35°28' E 139°40'0 0.0
2018-Apr-17 01:30N 35°28' E 139°40'0 0.0
2018-Apr-17 01:00N 35°28' E 139°40'0 0.0
2018-Apr-17 00:30N 35°28' E 139°40'0 0.0
2018-Apr-17 00:00N 35°28' E 139°40'0 0.0
2018-Apr-16 23:28N 35°28' E 139°40'3 5.9
2018-Apr-16 23:00N 35°25' E 139°42'3 7.0
2018-Apr-16 22:30N 35°22' E 139°39'1 1.7
2018-Apr-16 22:01N 35°23' E 139°40'0 0.4
2018-Apr-16 21:31N 35°23' E 139°40'3 6.9
2018-Apr-16 21:01N 35°26' E 139°42'1 2.2
2018-Apr-16 20:30N 35°27' E 139°40'0 0.0
2018-Apr-16 20:00N 35°27' E 139°40'0 0.0
2018-Apr-16 19:30N 35°27' E 139°40'0 0.0
2018-Apr-16 19:00N 35°27' E 139°40'0 0.0
2018-Apr-16 18:30N 35°27' E 139°40'0 0.0
2018-Apr-16 18:00N 35°27' E 139°40'0 0.0
2018-Apr-16 17:30N 35°27' E 139°40'0 0.0
2018-Apr-16 17:00N 35°27' E 139°40'0 0.0
2018-Apr-16 16:30N 35°27' E 139°40'0 0.0
2018-Apr-16 16:00N 35°27' E 139°40'0 0.0
2018-Apr-16 15:30N 35°27' E 139°40'0 0.0
2018-Apr-16 15:00N 35°27' E 139°40'0 0.0
2018-Apr-16 14:30N 35°27' E 139°40'0 0.0
2018-Apr-16 14:00N 35°27' E 139°40'0 0.0
2018-Apr-16 13:30N 35°27' E 139°40'0 0.0
2018-Apr-16 13:00N 35°27' E 139°40'0 0.0
2018-Apr-16 12:30N 35°27' E 139°40'0 0.0
2018-Apr-16 12:00N 35°27' E 139°40'  
Track history (hours):
 
Tides and Currents Weather Stations Pressure Air Temp Water Temp Dewpoint Dewpoint Depression Visibility Wind Speed Wind Dir Waves Ship Positions

Kasugamaru

Last reported at 2018-Apr-26 11:30 UTC. Time now 2018-Apr-26 11:44 UTC.
Position N 35°27' E 139°40'.

Length 44 m; draft 3.9 m.

Type: Tug. MMSI: 431101128.

Date/timePositionNaut miles runAvg speedWind from/ knotsBaromVisibWave heightAir tempDewpointWater temp
2018-Apr-26 11:30N 35°27' E 139°40'0 0.0
2018-Apr-26 11:00N 35°27' E 139°40'0 0.0
2018-Apr-26 10:30N 35°27' E 139°40'0 0.0
2018-Apr-26 10:00N 35°27' E 139°40'1 2.2
2018-Apr-26 09:30N 35°27' E 139°41'0 0.1
2018-Apr-26 09:00N 35°27' E 139°41'2 3.1
2018-Apr-26 08:30N 35°26' E 139°43'1 1.6
2018-Apr-26 08:00N 35°26' E 139°42'1 2.0
2018-Apr-26 07:30N 35°27' E 139°41'1 1.0
2018-Apr-26 07:00N 35°26' E 139°41'0 0.7
2018-Apr-26 06:30N 35°26' E 139°41'1 2.7
2018-Apr-26 06:00N 35°28' E 139°40'0 0.0
2018-Apr-26 05:30N 35°28' E 139°40'1 2.8
2018-Apr-26 05:00N 35°26' E 139°41'1 1.7
2018-Apr-26 04:30N 35°26' E 139°42'2 3.6
2018-Apr-26 04:00N 35°28' E 139°40'0 0.0
2018-Apr-26 03:30N 35°28' E 139°40'0 0.0
2018-Apr-26 03:00N 35°28' E 139°40'0 0.0
2018-Apr-26 02:30N 35°28' E 139°40'0 0.0
2018-Apr-26 02:00N 35°28' E 139°40'0 0.0
2018-Apr-26 01:30N 35°28' E 139°40'1 1.9
2018-Apr-26 01:00N 35°27' E 139°39'0 0.0
2018-Apr-26 00:30N 35°27' E 139°39'0 0.8
2018-Apr-26 00:01N 35°27' E 139°39'1 2.5
2018-Apr-25 23:30N 35°27' E 139°40'0 0.3
2018-Apr-25 23:00N 35°26' E 139°40'0 0.5
2018-Apr-25 22:30N 35°27' E 139°40'1 1.7
2018-Apr-25 22:00N 35°27' E 139°39'0 0.0
2018-Apr-25 21:30N 35°27' E 139°39'0 0.0
2018-Apr-25 21:00N 35°27' E 139°39'0 0.0
2018-Apr-25 20:30N 35°27' E 139°39'0 0.0
2018-Apr-25 20:00N 35°27' E 139°39'0 0.0
2018-Apr-25 19:30N 35°27' E 139°39'0 0.0
2018-Apr-25 19:00N 35°27' E 139°39'0 0.0
2018-Apr-25 18:30N 35°27' E 139°39'0 0.0
2018-Apr-25 18:00N 35°27' E 139°39'0 0.0
2018-Apr-25 17:30N 35°27' E 139°39'0 0.0
2018-Apr-25 17:00N 35°27' E 139°39'0 0.0
2018-Apr-25 16:30N 35°27' E 139°39'0 0.0
2018-Apr-25 16:00N 35°27' E 139°39'0 0.0
2018-Apr-25 15:30N 35°27' E 139°39'0 0.0
2018-Apr-25 15:00N 35°27' E 139°39'0 0.0
2018-Apr-25 14:30N 35°27' E 139°39'0 0.0
2018-Apr-25 14:00N 35°27' E 139°39'0 0.0
2018-Apr-25 13:29N 35°27' E 139°39'0 0.0
2018-Apr-25 13:00N 35°27' E 139°39'0 0.0
2018-Apr-25 12:30N 35°27' E 139°39'0 0.0
2018-Apr-25 12:00N 35°27' E 139°39'0 0.0
2018-Apr-25 11:30N 35°27' E 139°39'0 0.0
2018-Apr-25 11:00N 35°27' E 139°39'0 0.0
2018-Apr-25 10:30N 35°27' E 139°39'0 0.0
2018-Apr-25 10:00N 35°27' E 139°39'0 0.0
2018-Apr-25 09:30N 35°27' E 139°39'0 0.0
2018-Apr-25 09:00N 35°27' E 139°39'0 0.0
2018-Apr-25 08:30N 35°27' E 139°39'0 0.0
2018-Apr-25 08:00N 35°27' E 139°39'0 0.0
2018-Apr-25 07:30N 35°27' E 139°39'0 0.0
2018-Apr-25 07:00N 35°27' E 139°39'0 0.0
2018-Apr-25 06:30N 35°27' E 139°39'0 0.0
2018-Apr-25 06:00N 35°27' E 139°39'0 0.0
2018-Apr-25 05:29N 35°27' E 139°39'0 0.0
2018-Apr-25 05:00N 35°27' E 139°39'0 0.0
2018-Apr-25 04:30N 35°27' E 139°39'0 0.0
2018-Apr-25 04:00N 35°27' E 139°39'0 0.0
2018-Apr-25 03:30N 35°27' E 139°39'0 0.0
2018-Apr-25 03:00N 35°27' E 139°39'0 0.0
2018-Apr-25 02:30N 35°27' E 139°39'0 0.0
2018-Apr-25 02:00N 35°27' E 139°39'0 0.0
2018-Apr-25 01:30N 35°27' E 139°39'0 0.0
2018-Apr-25 01:00N 35°27' E 139°39'0 0.0
2018-Apr-25 00:30N 35°27' E 139°39'0 0.0
2018-Apr-25 00:00N 35°27' E 139°39'0 0.0
2018-Apr-24 23:30N 35°27' E 139°39'0 0.6
2018-Apr-24 23:00N 35°27' E 139°39'2 4.6
2018-Apr-24 22:30N 35°26' E 139°42'1 2.6
2018-Apr-24 22:00N 35°25' E 139°42'1 1.5
2018-Apr-24 21:30N 35°25' E 139°41'0 0.2
2018-Apr-24 21:00N 35°25' E 139°41'0 0.0
2018-Apr-24 20:30N 35°25' E 139°41'1 2.3
2018-Apr-24 20:00N 35°25' E 139°42'1 1.9
2018-Apr-24 19:30N 35°24' E 139°41'0 0.0
2018-Apr-24 19:01N 35°24' E 139°41'0 0.0
2018-Apr-24 18:30N 35°24' E 139°41'1 2.6
2018-Apr-24 18:00N 35°23' E 139°40'0 0.0
2018-Apr-24 17:30N 35°23' E 139°40'0 0.0
2018-Apr-24 17:00N 35°23' E 139°40'0 0.0
2018-Apr-24 16:30N 35°23' E 139°40'0 0.0
2018-Apr-24 16:00N 35°23' E 139°40'0 0.0
2018-Apr-24 15:30N 35°23' E 139°40'1 1.6
2018-Apr-24 15:00N 35°24' E 139°40'0 0.2
2018-Apr-24 14:30N 35°24' E 139°41'1 1.7
2018-Apr-24 14:01N 35°23' E 139°41'3 6.3
2018-Apr-24 13:30N 35°26' E 139°42'0 0.0
2018-Apr-24 13:00N 35°26' E 139°42'0 0.0
2018-Apr-24 12:30N 35°26' E 139°42'0 0.0
2018-Apr-24 12:00N 35°26' E 139°42'0 0.0
2018-Apr-24 11:30N 35°26' E 139°42'0 0.0
2018-Apr-24 11:00N 35°26' E 139°42'0 0.0
2018-Apr-24 10:30N 35°26' E 139°42'1 2.5
2018-Apr-24 10:00N 35°27' E 139°41'1 1.3
2018-Apr-24 09:31N 35°26' E 139°40'0 0.3
2018-Apr-24 09:00N 35°27' E 139°40'0 0.0
2018-Apr-24 08:30N 35°27' E 139°40'1 1.7
2018-Apr-24 08:00N 35°27' E 139°41'1 2.9
2018-Apr-24 07:30N 35°28' E 139°41'0 0.2
2018-Apr-24 07:00N 35°28' E 139°41'2 3.9
2018-Apr-24 06:30N 35°27' E 139°40'0 0.0
2018-Apr-24 06:00N 35°27' E 139°40'1 1.4
2018-Apr-24 05:30N 35°27' E 139°40'1 1.7
2018-Apr-24 05:00N 35°27' E 139°41'0 0.1
2018-Apr-24 04:30N 35°27' E 139°41'1 2.0
2018-Apr-24 04:00N 35°27' E 139°40'0 0.0
2018-Apr-24 03:30N 35°27' E 139°40'0 0.0
2018-Apr-24 03:00N 35°27' E 139°40'0 0.0
2018-Apr-24 02:30N 35°27' E 139°40'0 0.0
2018-Apr-24 02:00N 35°27' E 139°40'0 0.0
2018-Apr-24 01:30N 35°27' E 139°40'0 0.0
2018-Apr-24 01:00N 35°27' E 139°40'0 0.0
2018-Apr-24 00:30N 35°27' E 139°40'0 0.0
2018-Apr-24 00:00N 35°27' E 139°40'0 0.0
2018-Apr-23 23:28N 35°27' E 139°40'0 0.0
2018-Apr-23 22:58N 35°27' E 139°40'0 0.0
2018-Apr-23 22:30N 35°27' E 139°40'0 0.0
2018-Apr-23 22:00N 35°27' E 139°40'0 0.0
2018-Apr-23 21:30N 35°27' E 139°40'0 0.0
2018-Apr-23 21:00N 35°27' E 139°40'0 0.0
2018-Apr-23 20:30N 35°27' E 139°40'0 0.0
2018-Apr-23 20:00N 35°27' E 139°40'0 0.0
2018-Apr-23 19:30N 35°27' E 139°40'0 0.0
2018-Apr-23 19:00N 35°27' E 139°40'0 0.0
2018-Apr-23 18:30N 35°27' E 139°40'0 0.0
2018-Apr-23 18:00N 35°27' E 139°40'0 0.0
2018-Apr-23 17:30N 35°27' E 139°40'0 0.0
2018-Apr-23 17:00N 35°27' E 139°40'0 0.0
2018-Apr-23 16:30N 35°27' E 139°40'0 0.0
2018-Apr-23 16:00N 35°27' E 139°40'0 0.0
2018-Apr-23 15:30N 35°27' E 139°40'0 0.0
2018-Apr-23 15:00N 35°27' E 139°40'0 0.0
2018-Apr-23 14:30N 35°27' E 139°40'0 0.0
2018-Apr-23 14:00N 35°27' E 139°40'0 0.0
2018-Apr-23 13:30N 35°27' E 139°40'0 0.0
2018-Apr-23 13:00N 35°27' E 139°40'0 0.0
2018-Apr-23 12:30N 35°27' E 139°40'0 0.0
2018-Apr-23 12:00N 35°27' E 139°40'0 0.0
2018-Apr-23 11:30N 35°27' E 139°40'0 0.0
2018-Apr-23 10:59N 35°27' E 139°40'0 0.0
2018-Apr-23 10:30N 35°27' E 139°40'0 0.0
2018-Apr-23 10:00N 35°27' E 139°40'0 0.0
2018-Apr-23 09:30N 35°27' E 139°40'0 0.0
2018-Apr-23 09:00N 35°27' E 139°40'0 0.0
2018-Apr-23 08:29N 35°27' E 139°40'0 0.0
2018-Apr-23 08:00N 35°27' E 139°40'0 0.0
2018-Apr-23 07:30N 35°27' E 139°40'0 0.0
2018-Apr-23 07:00N 35°27' E 139°40'0 0.0
2018-Apr-23 06:30N 35°27' E 139°40'0 0.0
2018-Apr-23 06:00N 35°27' E 139°40'0 0.0
2018-Apr-23 05:30N 35°27' E 139°40'0 0.0
2018-Apr-23 05:00N 35°27' E 139°40'1 1.2
2018-Apr-23 04:30N 35°27' E 139°41'5 9.3
2018-Apr-23 04:01N 35°30' E 139°45'0 0.2
2018-Apr-23 03:30N 35°30' E 139°45'2 3.7
2018-Apr-23 03:00N 35°29' E 139°43'4 7.5
2018-Apr-23 02:30N 35°26' E 139°44'2 3.1
2018-Apr-23 02:00N 35°27' E 139°43'2 4.1
2018-Apr-23 01:30N 35°27' E 139°40'0 0.0
2018-Apr-23 01:00N 35°27' E 139°40'0 0.0
2018-Apr-23 00:30N 35°27' E 139°40'0 0.0
2018-Apr-23 00:00N 35°27' E 139°40'0 0.0
2018-Apr-22 23:30N 35°27' E 139°40'0 0.0
2018-Apr-22 23:00N 35°27' E 139°40'0 0.0
2018-Apr-22 22:30N 35°27' E 139°40'0 0.0
2018-Apr-22 22:00N 35°27' E 139°40'0 0.0
2018-Apr-22 21:30N 35°27' E 139°40'0 0.0
2018-Apr-22 21:00N 35°27' E 139°40'0 0.0
2018-Apr-22 20:30N 35°27' E 139°40'0 0.0
2018-Apr-22 20:00N 35°27' E 139°40'0 0.0
2018-Apr-22 19:30N 35°27' E 139°40'0 0.0
2018-Apr-22 19:00N 35°27' E 139°40'0 0.0
2018-Apr-22 18:30N 35°27' E 139°40'0 0.0
2018-Apr-22 18:00N 35°27' E 139°40'0 0.0
2018-Apr-22 17:30N 35°27' E 139°40'0 0.0
2018-Apr-22 17:00N 35°27' E 139°40'0 0.0
2018-Apr-22 16:30N 35°27' E 139°40'0 0.0
2018-Apr-22 16:00N 35°27' E 139°40'0 0.0
2018-Apr-22 15:30N 35°27' E 139°40'0 0.0
2018-Apr-22 15:00N 35°27' E 139°40'0 0.0
2018-Apr-22 14:30N 35°27' E 139°40'0 0.0
2018-Apr-22 14:00N 35°27' E 139°40'0 0.0
2018-Apr-22 13:30N 35°27' E 139°40'0 0.0
2018-Apr-22 13:00N 35°27' E 139°40'0 0.0
2018-Apr-22 12:30N 35°27' E 139°40'0 0.0
2018-Apr-22 12:00N 35°27' E 139°40'0 0.0
2018-Apr-22 11:30N 35°27' E 139°40'0 0.0
2018-Apr-22 11:00N 35°27' E 139°40'0 0.0
2018-Apr-22 10:30N 35°27' E 139°40'0 0.0
2018-Apr-22 10:00N 35°27' E 139°40'0 0.0
2018-Apr-22 09:29N 35°27' E 139°40'0 0.0
2018-Apr-22 09:00N 35°27' E 139°40'3 5.2
2018-Apr-22 08:30N 35°29' E 139°42'1 1.1
2018-Apr-22 08:00N 35°29' E 139°42'1 1.4
2018-Apr-22 07:30N 35°29' E 139°43'0 0.0
2018-Apr-22 07:00N 35°29' E 139°43'1 1.1
2018-Apr-22 06:30N 35°29' E 139°43'2 4.9
2018-Apr-22 06:00N 35°28' E 139°40'0 0.0
2018-Apr-22 05:30N 35°28' E 139°40'0 1.0
2018-Apr-22 05:00N 35°27' E 139°41'1 2.1
2018-Apr-22 04:31N 35°26' E 139°41'2 3.1
2018-Apr-22 04:00N 35°28' E 139°40'0 0.0
2018-Apr-22 03:30N 35°28' E 139°40'0 0.0
2018-Apr-22 03:00N 35°28' E 139°40'1 1.8
2018-Apr-22 02:30N 35°28' E 139°42'0 0.9
2018-Apr-22 02:00N 35°28' E 139°42'2 3.7
2018-Apr-22 01:30N 35°27' E 139°44'1 2.9
2018-Apr-22 01:00N 35°27' E 139°42'0 0.0
2018-Apr-22 00:30N 35°27' E 139°42'0 0.0
2018-Apr-22 00:00N 35°27' E 139°42'0 0.0
2018-Apr-21 23:30N 35°27' E 139°42'0 0.0
2018-Apr-21 23:00N 35°27' E 139°42'1 3.0
2018-Apr-21 22:30N 35°28' E 139°41'0 0.4
2018-Apr-21 22:00N 35°28' E 139°41'2 4.7
2018-Apr-21 21:30N 35°27' E 139°43'1 2.4
2018-Apr-21 21:00N 35°26' E 139°44'3 6.9
2018-Apr-21 20:30N 35°27' E 139°40'0 0.0
2018-Apr-21 20:00N 35°27' E 139°40'0 0.0
2018-Apr-21 19:30N 35°27' E 139°40'0 0.0
2018-Apr-21 19:00N 35°27' E 139°40'0 0.0
2018-Apr-21 18:30N 35°27' E 139°40'0 0.0
2018-Apr-21 18:00N 35°27' E 139°40'0 0.0
2018-Apr-21 17:30N 35°27' E 139°40'0 0.0
2018-Apr-21 17:00N 35°27' E 139°40'0 0.0
2018-Apr-21 16:30N 35°27' E 139°40'0 0.0
2018-Apr-21 16:00N 35°27' E 139°40'0 0.0
2018-Apr-21 15:30N 35°27' E 139°40'0 0.0
2018-Apr-21 15:00N 35°27' E 139°40'0 0.0
2018-Apr-21 14:30N 35°27' E 139°40'0 0.0
2018-Apr-21 14:00N 35°27' E 139°40'0 0.0
2018-Apr-21 13:30N 35°27' E 139°40'0 0.0
2018-Apr-21 13:00N 35°27' E 139°40'0 0.0
2018-Apr-21 12:30N 35°27' E 139°40'0 0.0
2018-Apr-21 12:00N 35°27' E 139°40'0 0.0
2018-Apr-21 11:30N 35°27' E 139°40'0 0.0
2018-Apr-21 11:00N 35°27' E 139°40'0 0.0
2018-Apr-21 10:30N 35°27' E 139°40'0 0.0
2018-Apr-21 10:00N 35°27' E 139°40'0 0.0
2018-Apr-21 09:30N 35°27' E 139°40'0 0.0
2018-Apr-21 09:00N 35°27' E 139°40'0 0.0
2018-Apr-21 08:30N 35°27' E 139°40'0 0.0
2018-Apr-21 08:00N 35°27' E 139°40'0 0.0
2018-Apr-21 07:30N 35°27' E 139°40'0 0.0
2018-Apr-21 07:00N 35°27' E 139°40'0 0.0
2018-Apr-21 06:30N 35°27' E 139°40'0 0.0
2018-Apr-21 06:00N 35°27' E 139°40'0 0.0
2018-Apr-21 05:30N 35°27' E 139°40'0 0.0
2018-Apr-21 05:00N 35°27' E 139°40'0 0.0
2018-Apr-21 04:30N 35°27' E 139°40'0 0.0
2018-Apr-21 04:00N 35°27' E 139°40'0 0.0
2018-Apr-21 03:30N 35°27' E 139°40'0 0.0
2018-Apr-21 03:00N 35°27' E 139°40'0 0.0
2018-Apr-21 02:30N 35°27' E 139°40'0 0.0
2018-Apr-21 02:00N 35°27' E 139°40'0 0.0
2018-Apr-21 01:30N 35°27' E 139°40'0 0.0
2018-Apr-21 01:00N 35°27' E 139°40'0 0.0
2018-Apr-21 00:30N 35°27' E 139°40'0 0.0
2018-Apr-21 00:00N 35°27' E 139°40'0 0.0
2018-Apr-20 23:30N 35°27' E 139°40'0 0.0
2018-Apr-20 23:00N 35°27' E 139°40'0 0.0
2018-Apr-20 22:30N 35°27' E 139°40'0 0.0
2018-Apr-20 22:00N 35°27' E 139°40'0 0.0
2018-Apr-20 21:30N 35°27' E 139°40'0 0.0
2018-Apr-20 21:01N 35°27' E 139°40'0 0.0
2018-Apr-20 20:30N 35°27' E 139°40'0 0.0
2018-Apr-20 20:00N 35°27' E 139°40'0 0.0
2018-Apr-20 19:30N 35°27' E 139°40'0 0.0
2018-Apr-20 19:00N 35°27' E 139°40'0 0.0
2018-Apr-20 18:30N 35°27' E 139°40'0 0.0
2018-Apr-20 18:00N 35°27' E 139°40'0 0.0
2018-Apr-20 17:30N 35°27' E 139°40'0 0.0
2018-Apr-20 17:00N 35°27' E 139°40'0 0.0
2018-Apr-20 16:30N 35°27' E 139°40'0 0.0
2018-Apr-20 16:00N 35°27' E 139°40'0 0.0
2018-Apr-20 15:30N 35°27' E 139°40'0 0.0
2018-Apr-20 15:00N 35°27' E 139°40'0 0.0
2018-Apr-20 14:29N 35°27' E 139°40'0 0.0
2018-Apr-20 14:00N 35°27' E 139°40'0 0.0
2018-Apr-20 13:30N 35°27' E 139°40'0 0.0
2018-Apr-20 13:00N 35°27' E 139°40'0 0.0
2018-Apr-20 12:30N 35°27' E 139°40'0 0.0
2018-Apr-20 12:00N 35°27' E 139°40'0 0.0
2018-Apr-20 11:30N 35°27' E 139°40'0 0.0
2018-Apr-20 11:00N 35°27' E 139°40'0 0.0
2018-Apr-20 10:30N 35°27' E 139°40'0 0.0
2018-Apr-20 10:00N 35°27' E 139°40'0 0.0
2018-Apr-20 09:30N 35°27' E 139°40'0 0.0
2018-Apr-20 09:00N 35°27' E 139°40'0 0.0
2018-Apr-20 08:30N 35°27' E 139°40'0 0.0
2018-Apr-20 08:00N 35°27' E 139°40'0 0.0
2018-Apr-20 07:30N 35°27' E 139°40'0 0.0
2018-Apr-20 07:00N 35°27' E 139°40'0 0.0
2018-Apr-20 06:30N 35°27' E 139°40'0 0.0
2018-Apr-20 06:00N 35°27' E 139°40'0 0.0
2018-Apr-20 05:31N 35°27' E 139°40'1 2.1
2018-Apr-20 05:00N 35°27' E 139°39'2 4.2
2018-Apr-20 04:30N 35°29' E 139°40'0 0.0
2018-Apr-20 04:00N 35°29' E 139°40'1 2.9
2018-Apr-20 03:30N 35°28' E 139°41'0 0.0
2018-Apr-20 03:00N 35°28' E 139°41'0 0.0
2018-Apr-20 02:30N 35°28' E 139°41'3 6.8
2018-Apr-20 02:00N 35°24' E 139°42'3 5.3
2018-Apr-20 01:30N 35°24' E 139°39'0 0.3
2018-Apr-20 01:01N 35°25' E 139°39'3 5.3
2018-Apr-20 00:30N 35°25' E 139°42'3 5.5
2018-Apr-20 00:00N 35°28' E 139°41'0 0.0
2018-Apr-19 23:30N 35°28' E 139°41'0 0.0
2018-Apr-19 23:00N 35°28' E 139°41'1 2.0
2018-Apr-19 22:30N 35°27' E 139°40'0 0.0
2018-Apr-19 22:00N 35°27' E 139°40'0 0.0
2018-Apr-19 21:30N 35°27' E 139°40'0 0.0
2018-Apr-19 21:00N 35°27' E 139°40'0 0.0
2018-Apr-19 20:30N 35°27' E 139°40'0 0.0
2018-Apr-19 20:00N 35°27' E 139°40'0 0.0
2018-Apr-19 19:30N 35°27' E 139°40'0 0.0
2018-Apr-19 19:00N 35°27' E 139°40'0 0.0
2018-Apr-19 18:30N 35°27' E 139°40'0 0.0
2018-Apr-19 18:00N 35°27' E 139°40'0 0.0
2018-Apr-19 17:30N 35°27' E 139°40'0 0.0
2018-Apr-19 17:00N 35°27' E 139°40'0 0.0
2018-Apr-19 16:30N 35°27' E 139°40'0 0.0
2018-Apr-19 16:00N 35°27' E 139°40'0 0.0
2018-Apr-19 15:30N 35°27' E 139°40'0 0.0
2018-Apr-19 15:00N 35°27' E 139°40'0 0.0
2018-Apr-19 14:30N 35°27' E 139°40'0 0.0
2018-Apr-19 14:00N 35°27' E 139°40'0 0.0
2018-Apr-19 13:30N 35°27' E 139°40'0 0.0
2018-Apr-19 13:00N 35°27' E 139°40'0 0.0
2018-Apr-19 12:30N 35°27' E 139°40'0 0.0
2018-Apr-19 12:00N 35°27' E 139°40'0 0.0
2018-Apr-19 11:30N 35°27' E 139°40'0 0.0
2018-Apr-19 11:00N 35°27' E 139°40'0 0.0
2018-Apr-19 10:30N 35°27' E 139°40'0 0.0
2018-Apr-19 10:00N 35°27' E 139°40'0 0.0
2018-Apr-19 09:30N 35°27' E 139°40'0 0.0
2018-Apr-19 09:00N 35°27' E 139°40'0 0.0
2018-Apr-19 08:30N 35°27' E 139°40'0 0.0
2018-Apr-19 08:00N 35°27' E 139°40'0 0.0
2018-Apr-19 07:30N 35°27' E 139°40'0 0.0
2018-Apr-19 07:00N 35°27' E 139°40'0 0.0
2018-Apr-19 06:30N 35°27' E 139°40'0 0.0
2018-Apr-19 06:00N 35°27' E 139°40'0 0.0
2018-Apr-19 05:30N 35°27' E 139°40'0 0.0
2018-Apr-19 05:00N 35°27' E 139°40'0 0.0
2018-Apr-19 04:30N 35°27' E 139°40'0 0.0
2018-Apr-19 04:00N 35°27' E 139°40'0 0.0
2018-Apr-19 03:30N 35°27' E 139°40'0 0.0
2018-Apr-19 03:00N 35°27' E 139°40'0 0.0
2018-Apr-19 02:30N 35°27' E 139°40'0 0.0
2018-Apr-19 02:00N 35°27' E 139°40'0 0.0
2018-Apr-19 01:30N 35°27' E 139°40'0 0.0
2018-Apr-19 01:00N 35°27' E 139°40'0 0.0
2018-Apr-19 00:30N 35°27' E 139°40'0 0.0
2018-Apr-19 00:00N 35°27' E 139°40'1 1.8
2018-Apr-18 23:30N 35°27' E 139°41'1 1.7
2018-Apr-18 23:00N 35°28' E 139°42'1 1.8
2018-Apr-18 22:30N 35°27' E 139°43'1 2.2
2018-Apr-18 22:00N 35°26' E 139°43'0 0.3
2018-Apr-18 21:30N 35°27' E 139°43'3 5.6
2018-Apr-18 21:00N 35°27' E 139°39'0 0.0
2018-Apr-18 20:30N 35°27' E 139°39'1 2.3
2018-Apr-18 20:00N 35°28' E 139°40'1 1.0
2018-Apr-18 19:30N 35°29' E 139°39'1 2.9
2018-Apr-18 19:00N 35°28' E 139°40'0 0.0
2018-Apr-18 18:30N 35°28' E 139°40'0 0.0
2018-Apr-18 18:00N 35°28' E 139°40'0 0.0
2018-Apr-18 17:30N 35°28' E 139°40'0 0.0
2018-Apr-18 17:00N 35°28' E 139°40'0 0.0
2018-Apr-18 16:30N 35°28' E 139°40'0 0.0
2018-Apr-18 16:00N 35°28' E 139°40'0 0.0
2018-Apr-18 15:30N 35°28' E 139°40'0 0.0
2018-Apr-18 15:00N 35°28' E 139°40'0 0.0
2018-Apr-18 14:31N 35°28' E 139°40'0 0.0
2018-Apr-18 14:00N 35°28' E 139°40'0 0.0
2018-Apr-18 13:30N 35°28' E 139°40'0 0.0
2018-Apr-18 13:00N 35°28' E 139°40'0 0.0
2018-Apr-18 12:30N 35°28' E 139°40'0 0.0
2018-Apr-18 12:00N 35°28' E 139°40'0 0.0
2018-Apr-18 11:30N 35°28' E 139°40'1 1.8
2018-Apr-18 11:00N 35°27' E 139°39'2 4.2
2018-Apr-18 10:30N 35°27' E 139°42'1 1.8
2018-Apr-18 10:00N 35°27' E 139°41'0 0.0
2018-Apr-18 09:30N 35°27' E 139°41'3 6.7
2018-Apr-18 09:00N 35°24' E 139°42'4 7.0
2018-Apr-18 08:30N 35°24' E 139°37'0 0.1
2018-Apr-18 08:00N 35°24' E 139°37'1 1.4
2018-Apr-18 07:30N 35°24' E 139°38'2 4.3
2018-Apr-18 07:00N 35°23' E 139°41'0 0.9
2018-Apr-18 06:30N 35°23' E 139°40'0 0.0
2018-Apr-18 06:00N 35°23' E 139°40'0 0.0
2018-Apr-18 05:30N 35°23' E 139°40'0 0.0
2018-Apr-18 05:00N 35°23' E 139°40'0 0.0
2018-Apr-18 04:30N 35°23' E 139°40'1 2.0
2018-Apr-18 04:00N 35°24' E 139°41'1 2.4
2018-Apr-18 03:30N 35°23' E 139°41'0 0.2
2018-Apr-18 03:00N 35°23' E 139°41'3 6.1
2018-Apr-18 02:30N 35°26' E 139°42'611.4
2018-Apr-18 02:00N 35°29' E 139°47'611.8
2018-Apr-18 01:29N 35°30' E 139°55'511.3
2018-Apr-18 01:00N 35°30' E 140°02'0 0.1
2018-Apr-18 00:30N 35°30' E 140°02'1 1.7
2018-Apr-18 00:01N 35°30' E 140°01'1 2.0
2018-Apr-17 23:29N 35°31' E 139°60'5 9.6
2018-Apr-17 23:00N 35°29' E 139°54'611.6
2018-Apr-17 22:30N 35°27' E 139°48'611.6
2018-Apr-17 22:00N 35°27' E 139°41'0 0.9
2018-Apr-17 21:29N 35°27' E 139°40'0 0.0
2018-Apr-17 21:00N 35°27' E 139°40'0 0.0
2018-Apr-17 20:30N 35°27' E 139°40'0 0.0
2018-Apr-17 20:00N 35°27' E 139°40'0 0.0
2018-Apr-17 19:30N 35°27' E 139°40'0 0.0
2018-Apr-17 19:00N 35°27' E 139°40'0 0.0
2018-Apr-17 18:30N 35°27' E 139°40'0 0.0
2018-Apr-17 18:00N 35°27' E 139°40'0 0.0
2018-Apr-17 17:30N 35°27' E 139°40'0 0.0
2018-Apr-17 17:00N 35°27' E 139°40'0 0.0
2018-Apr-17 16:28N 35°27' E 139°40'0 0.0
2018-Apr-17 16:00N 35°27' E 139°40'0 0.0
2018-Apr-17 15:30N 35°27' E 139°40'0 0.0
2018-Apr-17 15:00N 35°27' E 139°40'0 0.0
2018-Apr-17 14:30N 35°27' E 139°40'0 0.0
2018-Apr-17 14:00N 35°27' E 139°40'0 0.0
2018-Apr-17 13:30N 35°27' E 139°40'0 0.0
2018-Apr-17 13:00N 35°27' E 139°40'0 0.0
2018-Apr-17 12:30N 35°27' E 139°40'0 0.0
2018-Apr-17 12:00N 35°27' E 139°40'0 0.0
2018-Apr-17 11:30N 35°27' E 139°40'0 0.0
2018-Apr-17 11:00N 35°27' E 139°40'0 0.0
2018-Apr-17 10:30N 35°27' E 139°40'0 0.0
2018-Apr-17 10:00N 35°27' E 139°40'0 0.1
2018-Apr-17 09:30N 35°27' E 139°40'4 7.0
2018-Apr-17 09:00N 35°23' E 139°42'611.0
2018-Apr-17 08:30N 35°18' E 139°43'612.2
2018-Apr-17 08:00N 35°12' E 139°46'611.7
2018-Apr-17 07:30N 35°18' E 139°44'612.4
2018-Apr-17 07:00N 35°24' E 139°43'4 8.7
2018-Apr-17 06:30N 35°23' E 139°48'2 4.4
2018-Apr-17 06:00N 35°21' E 139°49'0 0.4
2018-Apr-17 05:30N 35°21' E 139°49'4 7.8
2018-Apr-17 05:00N 35°24' E 139°45'611.1
2018-Apr-17 04:31N 35°28' E 139°40'0 0.0
2018-Apr-17 04:00N 35°28' E 139°40'0 0.0
2018-Apr-17 03:30N 35°28' E 139°40'0 0.0
2018-Apr-17 03:00N 35°28' E 139°40'0 0.0
2018-Apr-17 02:30N 35°28' E 139°40'0 0.0
2018-Apr-17 02:00N 35°28' E 139°40'0 0.0
2018-Apr-17 01:30N 35°28' E 139°40'0 0.0
2018-Apr-17 01:00N 35°28' E 139°40'0 0.0
2018-Apr-17 00:30N 35°28' E 139°40'0 0.0
2018-Apr-17 00:00N 35°28' E 139°40'0 0.0
2018-Apr-16 23:28N 35°28' E 139°40'3 5.9
2018-Apr-16 23:00N 35°25' E 139°42'3 7.0
2018-Apr-16 22:30N 35°22' E 139°39'1 1.7
2018-Apr-16 22:01N 35°23' E 139°40'0 0.4
2018-Apr-16 21:31N 35°23' E 139°40'3 6.9
2018-Apr-16 21:01N 35°26' E 139°42'1 2.2
2018-Apr-16 20:30N 35°27' E 139°40'0 0.0
2018-Apr-16 20:00N 35°27' E 139°40'0 0.0
2018-Apr-16 19:30N 35°27' E 139°40'0 0.0
2018-Apr-16 19:00N 35°27' E 139°40'0 0.0
2018-Apr-16 18:30N 35°27' E 139°40'0 0.0
2018-Apr-16 18:00N 35°27' E 139°40'0 0.0
2018-Apr-16 17:30N 35°27' E 139°40'0 0.0
2018-Apr-16 17:00N 35°27' E 139°40'0 0.0
2018-Apr-16 16:30N 35°27' E 139°40'0 0.0
2018-Apr-16 16:00N 35°27' E 139°40'0 0.0
2018-Apr-16 15:30N 35°27' E 139°40'0 0.0
2018-Apr-16 15:00N 35°27' E 139°40'0 0.0
2018-Apr-16 14:30N 35°27' E 139°40'0 0.0
2018-Apr-16 14:00N 35°27' E 139°40'0 0.0
2018-Apr-16 13:30N 35°27' E 139°40'0 0.0
2018-Apr-16 13:00N 35°27' E 139°40'0 0.0
2018-Apr-16 12:30N 35°27' E 139°40'0 0.0
2018-Apr-16 12:00N 35°27' E 139°40'  

Dump ship's entire track history